createdAt,value
2018-09-06T00:01:37.635Z,39.50
2018-09-06T00:04:06.862Z,38.30
2018-09-06T00:06:35.510Z,38.05
2018-09-06T00:09:04.955Z,38.88
2018-09-06T00:11:33.462Z,41.95
2018-09-06T00:14:02.998Z,41.35
2018-09-06T00:16:31.548Z,39.55
2018-09-06T00:19:00.089Z,40.08
2018-09-06T00:21:28.601Z,42.20
2018-09-06T00:23:57.137Z,41.88
2018-09-06T00:26:25.742Z,42.13
2018-09-06T00:28:54.533Z,41.33
2018-09-06T00:31:22.949Z,40.73
2018-09-06T00:33:51.888Z,41.18
2018-09-06T00:36:20.472Z,40.33
2018-09-06T00:38:49.013Z,40.78
2018-09-06T00:41:17.661Z,41.83
2018-09-06T00:43:46.077Z,41.02
2018-09-06T00:46:14.888Z,40.55
2018-09-06T00:48:43.810Z,40.23
2018-09-06T00:51:12.437Z,43.80
2018-09-06T00:53:41.540Z,38.50
2018-09-06T00:56:10.705Z,39.63
2018-09-06T00:58:39.156Z,39.40
2018-09-06T01:01:11.208Z,42.05
2018-09-06T01:03:39.721Z,42.93
2018-09-06T01:06:08.173Z,41.55
2018-09-06T01:08:36.736Z,39.70
2018-09-06T01:11:05.288Z,37.65
2018-09-06T01:13:33.805Z,42.62
2018-09-06T01:16:02.444Z,42.08
2018-09-06T01:18:30.973Z,42.95
2018-09-06T01:20:59.452Z,37.08
2018-09-06T01:23:28.051Z,42.00
2018-09-06T01:25:57.613Z,45.50
2018-09-06T01:28:26.286Z,39.58
2018-09-06T01:30:54.899Z,42.98
2018-09-06T01:33:23.537Z,44.08
2018-09-06T01:35:57.324Z,44.18
2018-09-06T01:38:25.753Z,41.35
2018-09-06T01:40:54.197Z,41.15
2018-09-06T01:43:23.141Z,43.92
2018-09-06T01:45:52.797Z,40.10
2018-09-06T01:48:21.505Z,43.87
2018-09-06T01:50:50.730Z,45.98
2018-09-06T01:53:19.324Z,44.80
2018-09-06T01:55:49.138Z,41.25
2018-09-06T01:58:17.661Z,41.48
2018-09-06T02:00:46.957Z,48.02
2018-09-06T02:03:15.475Z,43.02
2018-09-06T02:05:43.888Z,42.78
2018-09-06T02:08:12.323Z,40.00
2018-09-06T02:10:41.465Z,42.10
2018-09-06T02:13:09.896Z,38.15
2018-09-06T02:15:38.395Z,39.60
2018-09-06T02:18:07.582Z,46.53
2018-09-06T02:20:36.072Z,38.17
2018-09-06T02:23:04.556Z,43.25
2018-09-06T02:25:33.035Z,48.52
2018-09-06T02:28:02.088Z,40.63
2018-09-06T02:30:30.657Z,40.43
2018-09-06T02:32:59.418Z,46.95
2018-09-06T02:35:28.494Z,41.15
2018-09-06T02:37:57.050Z,47.48
2018-09-06T02:40:30.668Z,40.40
2018-09-06T02:42:59.142Z,46.25
2018-09-06T02:45:27.665Z,49.73
2018-09-06T02:47:57.059Z,42.05
2018-09-06T02:50:33.342Z,47.00
2018-09-06T02:53:01.868Z,48.15
2018-09-06T02:55:30.804Z,46.65
2018-09-06T02:58:00.056Z,45.83
2018-09-06T03:00:29.901Z,45.92
2018-09-06T03:02:58.465Z,45.08
2018-09-06T03:05:27.612Z,45.35
2018-09-06T03:07:58.194Z,48.23
2018-09-06T03:10:37.148Z,45.23
2018-09-06T03:13:06.769Z,53.30
2018-09-06T03:15:36.207Z,49.93
2018-09-06T03:18:04.802Z,54.45
2018-09-06T03:20:33.254Z,53.00
2018-09-06T03:23:03.007Z,49.03
2018-09-06T03:25:32.212Z,48.73
2018-09-06T03:28:01.260Z,47.43
2018-09-06T03:30:29.789Z,57.35
2018-09-06T03:32:58.465Z,54.65
2018-09-06T03:35:27.141Z,53.17
2018-09-06T03:37:55.605Z,50.12
2018-09-06T03:40:24.033Z,51.20
2018-09-06T03:42:52.532Z,57.40
2018-09-06T03:45:21.217Z,51.87
2018-09-06T03:47:50.536Z,53.17
2018-09-06T03:50:19.229Z,52.83
2018-09-06T03:52:47.789Z,55.15
2018-09-06T03:55:16.271Z,60.83
2018-09-06T03:57:45.003Z,55.38
2018-09-06T04:00:13.483Z,61.03
2018-09-06T04:02:41.995Z,58.25
2018-09-06T04:05:10.437Z,64.00
2018-09-06T04:07:39.012Z,55.90
2018-09-06T04:10:07.705Z,66.33
2018-09-06T04:12:36.168Z,63.15
2018-09-06T04:15:04.930Z,57.23
2018-09-06T04:17:33.399Z,67.85
2018-09-06T04:20:02.371Z,63.38
2018-09-06T04:22:30.861Z,59.85
2018-09-06T04:24:59.699Z,66.53
2018-09-06T04:28:37.784Z,66.05
2018-09-06T04:31:06.517Z,60.75
2018-09-06T04:33:35.780Z,66.42
2018-09-06T04:36:04.852Z,72.45
2018-09-06T04:38:33.301Z,61.33
2018-09-06T04:41:02.355Z,59.98
2018-09-06T04:43:31.120Z,62.10
2018-09-06T04:45:59.949Z,55.05
2018-09-06T04:48:28.485Z,52.98
2018-09-06T04:50:57.088Z,57.07
2018-09-06T04:53:25.786Z,52.08
2018-09-06T04:55:54.208Z,58.10
2018-09-06T04:58:23.414Z,63.50
2018-09-06T05:00:52.240Z,49.65
2018-09-06T05:03:21.523Z,57.45
2018-09-06T05:05:50.057Z,55.00
2018-09-06T05:08:19.055Z,53.92
2018-09-06T05:10:47.637Z,55.90
2018-09-06T05:13:16.097Z,63.35
2018-09-06T05:15:44.826Z,56.55
2018-09-06T05:18:13.527Z,54.25
2018-09-06T05:20:42.006Z,52.65
2018-09-06T05:23:10.540Z,57.58
2018-09-06T05:25:38.990Z,52.62
2018-09-06T05:28:07.504Z,53.92
2018-09-06T05:30:36.228Z,58.48
2018-09-06T05:33:04.793Z,62.00
2018-09-06T05:35:33.257Z,59.45
2018-09-06T05:38:01.852Z,51.42
2018-09-06T05:40:30.341Z,49.73
2018-09-06T05:42:58.907Z,54.20
2018-09-06T05:45:27.615Z,52.05
2018-09-06T05:47:57.736Z,52.03
2018-09-06T05:50:27.449Z,53.33
2018-09-06T05:52:56.051Z,57.55
2018-09-06T05:55:24.693Z,53.80
2018-09-06T05:57:53.992Z,50.85
2018-09-06T06:00:28.061Z,60.05
2018-09-06T06:02:58.725Z,59.33
2018-09-06T06:05:27.924Z,67.65
2018-09-06T06:08:07.797Z,55.80
2018-09-06T06:10:36.411Z,58.20
2018-09-06T06:13:04.928Z,62.30
2018-09-06T06:15:33.821Z,58.65
2018-09-06T06:18:02.846Z,61.53
2018-09-06T06:20:31.303Z,60.55
2018-09-06T06:22:59.766Z,62.40
2018-09-06T06:25:28.230Z,61.88
2018-09-06T06:27:56.779Z,55.08
2018-09-06T06:30:26.315Z,60.37
2018-09-06T06:32:55.001Z,55.20
2018-09-06T06:35:23.979Z,56.37
2018-09-06T06:37:52.470Z,58.78
2018-09-06T06:40:21.367Z,62.93
2018-09-06T06:42:50.056Z,64.27
2018-09-06T06:45:18.623Z,59.38
2018-09-06T06:47:47.647Z,52.03
2018-09-06T06:50:16.672Z,57.23
2018-09-06T06:52:45.456Z,51.08
2018-09-06T06:55:14.681Z,54.97
2018-09-06T06:57:43.120Z,54.18
2018-09-06T07:00:11.865Z,54.75
2018-09-06T07:02:40.330Z,53.60
2018-09-06T07:05:09.095Z,55.35
2018-09-06T07:07:37.993Z,51.08
2018-09-06T07:10:07.156Z,53.88
2018-09-06T07:12:35.818Z,52.58
2018-09-06T07:15:04.542Z,59.27
2018-09-06T07:17:33.278Z,54.13
2018-09-06T07:20:02.576Z,54.65
2018-09-06T07:22:31.062Z,46.83
2018-09-06T07:24:59.669Z,50.48
2018-09-06T07:27:28.505Z,49.90
2018-09-06T07:29:57.278Z,60.05
2018-09-06T07:32:25.810Z,54.33
2018-09-06T07:34:54.237Z,54.70
2018-09-06T07:37:22.830Z,52.00
2018-09-06T07:39:51.422Z,51.33
2018-09-06T07:42:20.155Z,55.10
2018-09-06T07:44:48.605Z,55.25
2018-09-06T07:47:17.136Z,61.53
2018-09-06T07:49:46.421Z,42.90
2018-09-06T07:52:15.035Z,47.30
2018-09-06T07:54:44.210Z,53.55
2018-09-06T07:57:12.775Z,45.05
2018-09-06T07:59:41.564Z,51.77
2018-09-06T08:02:10.072Z,36.73
2018-09-06T08:04:38.756Z,40.12
2018-09-06T08:07:07.489Z,42.83
2018-09-06T08:09:36.237Z,46.88
2018-09-06T08:12:05.453Z,44.50
2018-09-06T08:14:34.108Z,46.85
2018-09-06T08:19:40.478Z,47.95
2018-09-06T08:22:09.025Z,46.98
2018-09-06T08:24:38.657Z,50.38
2018-09-06T08:27:07.856Z,50.58
2018-09-06T08:29:39.118Z,48.70
2018-09-06T08:32:07.845Z,47.45
2018-09-06T08:34:36.590Z,46.85
2018-09-06T08:37:05.411Z,46.18
2018-09-06T08:39:34.037Z,49.95
2018-09-06T08:42:02.796Z,46.65
2018-09-06T08:44:31.466Z,51.30
2018-09-06T08:47:00.596Z,51.83
2018-09-06T08:49:29.085Z,49.23
2018-09-06T08:51:57.784Z,50.52
2018-09-06T08:54:26.988Z,49.73
2018-09-06T08:56:55.681Z,47.60
2018-09-06T08:59:24.230Z,47.48
2018-09-06T09:01:52.963Z,47.10
2018-09-06T09:04:21.994Z,46.58
2018-09-06T09:06:50.602Z,48.28
2018-09-06T09:09:20.246Z,49.70
2018-09-06T09:11:54.311Z,51.13
2018-09-06T09:14:23.121Z,54.90
2018-09-06T09:16:51.802Z,52.05
2018-09-06T09:19:20.498Z,49.20
2018-09-06T09:21:49.172Z,48.15
2018-09-06T09:24:17.776Z,49.58
2018-09-06T09:26:46.311Z,47.53
2018-09-06T09:29:15.007Z,48.87
2018-09-06T09:31:43.554Z,59.70
2018-09-06T09:34:12.201Z,60.08
2018-09-06T09:36:40.832Z,54.80
2018-09-06T09:39:10.349Z,49.25
2018-09-06T09:41:39.614Z,77.40
2018-09-06T09:44:08.845Z,52.80
2018-09-06T09:49:05.144Z,47.23
2018-09-06T09:51:33.841Z,54.60
2018-09-06T09:54:02.608Z,51.53
2018-09-06T09:56:31.125Z,47.75
2018-09-06T09:58:59.632Z,52.05
2018-09-06T10:01:33.374Z,71.62
2018-09-06T10:04:07.343Z,51.08
2018-09-06T10:06:41.120Z,48.15
2018-09-06T10:09:16.164Z,47.40
2018-09-06T10:11:44.811Z,51.18
2018-09-06T10:14:14.628Z,51.35
2018-09-06T10:16:43.335Z,52.93
2018-09-06T10:19:11.914Z,81.15
2018-09-06T10:21:41.967Z,57.98
2018-09-06T10:24:11.233Z,101.60
2018-09-06T10:26:40.532Z,55.25
2018-09-06T10:29:09.479Z,104.67
2018-09-06T10:31:38.212Z,60.15
2018-09-06T10:34:12.965Z,85.87
2018-09-06T10:36:41.491Z,57.60
2018-09-06T10:39:10.920Z,77.72
2018-09-06T10:41:39.702Z,59.93
2018-09-06T10:44:08.412Z,64.00
2018-09-06T10:46:37.208Z,59.55
2018-09-06T10:49:07.183Z,70.00
2018-09-06T10:51:36.718Z,93.20
2018-09-06T10:54:05.397Z,73.37
2018-09-06T10:56:34.029Z,68.80
2018-09-06T10:59:02.545Z,137.18
2018-09-06T11:01:31.090Z,70.37
2018-09-06T11:03:59.797Z,76.72
2018-09-06T11:06:28.303Z,73.60
2018-09-06T11:08:56.882Z,62.48
2018-09-06T11:11:25.384Z,63.98
2018-09-06T11:13:54.314Z,78.72
2018-09-06T11:16:23.278Z,100.30
2018-09-06T11:18:52.083Z,66.12
2018-09-06T11:21:21.387Z,62.15
2018-09-06T11:23:50.005Z,56.77
2018-09-06T11:26:18.959Z,61.50
2018-09-06T11:28:47.639Z,62.53
2018-09-06T11:31:16.785Z,55.00
2018-09-06T11:33:45.275Z,59.73
2018-09-06T11:36:14.148Z,57.45
2018-09-06T11:38:42.873Z,55.73
2018-09-06T11:41:11.439Z,54.90
2018-09-06T11:43:39.981Z,67.82
2018-09-06T11:46:08.815Z,51.63
2018-09-06T11:48:37.402Z,59.80
2018-09-06T11:51:12.797Z,53.27
2018-09-06T11:53:41.545Z,57.43
2018-09-06T11:56:10.277Z,56.70
2018-09-06T11:58:38.971Z,57.90
2018-09-06T12:01:08.101Z,69.50
2018-09-06T12:03:36.908Z,65.08
2018-09-06T12:06:05.499Z,65.30
2018-09-06T12:08:34.003Z,62.03
2018-09-06T12:11:02.940Z,66.20
2018-09-06T12:13:32.156Z,74.03
2018-09-06T12:16:00.645Z,59.23
2018-09-06T12:18:29.523Z,61.53
2018-09-06T12:20:58.081Z,62.43
2018-09-06T12:23:26.836Z,55.75
2018-09-06T12:25:55.823Z,59.50
2018-09-06T12:28:24.780Z,64.37
2018-09-06T12:30:53.558Z,65.10
2018-09-06T12:33:23.469Z,63.10
2018-09-06T12:35:52.207Z,59.63
2018-09-06T12:38:20.948Z,59.95
2018-09-06T12:40:49.542Z,61.80
2018-09-06T12:43:18.190Z,59.27
2018-09-06T12:45:46.843Z,56.65
2018-09-06T12:48:15.838Z,51.20
2018-09-06T12:50:45.194Z,48.17
2018-09-06T12:53:13.713Z,48.13
2018-09-06T12:55:42.466Z,46.40
2018-09-06T12:58:11.061Z,49.85
2018-09-06T13:00:40.397Z,49.25
2018-09-06T13:03:08.932Z,44.30
2018-09-06T13:05:37.453Z,43.68
2018-09-06T13:08:06.017Z,47.65
2018-09-06T13:10:34.550Z,42.27
2018-09-06T13:13:03.199Z,48.08
2018-09-06T13:15:31.876Z,47.65
2018-09-06T13:18:00.472Z,40.70
2018-09-06T13:20:29.089Z,45.97
2018-09-06T13:22:57.604Z,46.77
2018-09-06T13:25:26.348Z,45.12
2018-09-06T13:27:54.884Z,44.58
2018-09-06T13:30:23.507Z,45.90
2018-09-06T13:32:52.192Z,44.20
2018-09-06T13:35:20.948Z,45.40
2018-09-06T13:37:49.430Z,46.05
2018-09-06T13:40:18.059Z,41.57
2018-09-06T13:42:46.715Z,45.52
2018-09-06T13:45:15.671Z,42.10
2018-09-06T13:47:44.264Z,38.53
2018-09-06T13:50:12.748Z,40.65
2018-09-06T13:52:41.273Z,42.70
2018-09-06T13:55:09.798Z,40.88
2018-09-06T13:57:38.443Z,40.98
2018-09-06T14:00:07.882Z,40.10
2018-09-06T14:02:36.408Z,40.10
2018-09-06T14:05:04.924Z,34.92
2018-09-06T14:07:33.785Z,36.08
2018-09-06T14:10:02.317Z,35.20
2018-09-06T14:12:30.993Z,32.15
2018-09-06T14:14:59.585Z,32.55
2018-09-06T14:17:28.308Z,30.57
2018-09-06T14:19:56.922Z,29.23
2018-09-06T14:22:26.021Z,27.58
2018-09-06T14:24:54.700Z,27.60
2018-09-06T14:27:23.221Z,27.95
2018-09-06T14:29:51.742Z,26.82
2018-09-06T14:32:21.596Z,24.20
2018-09-06T14:34:50.176Z,25.85
2018-09-06T14:37:18.990Z,28.55
2018-09-06T14:39:47.520Z,28.75
2018-09-06T14:42:22.735Z,30.75
2018-09-06T14:44:52.086Z,28.30
2018-09-06T14:47:20.806Z,36.30
2018-09-06T14:49:49.978Z,37.05
2018-09-06T14:52:18.585Z,27.67
2018-09-06T14:54:47.328Z,25.68
2018-09-06T14:57:16.075Z,26.90
2018-09-06T14:59:44.611Z,22.52
2018-09-06T15:02:13.221Z,22.93
2018-09-06T15:04:41.829Z,20.70
2018-09-06T15:07:10.313Z,66.57
2018-09-06T15:09:39.877Z,24.52
2018-09-06T15:12:08.640Z,26.80
2018-09-06T15:14:37.406Z,25.15
2018-09-06T15:17:06.124Z,26.05
2018-09-06T15:19:35.100Z,26.40
2018-09-06T15:22:03.727Z,26.87
2018-09-06T15:24:32.651Z,26.00
2018-09-06T15:27:01.563Z,25.23
2018-09-06T15:29:30.311Z,24.43
2018-09-06T15:31:58.825Z,25.17
2018-09-06T15:34:27.751Z,28.98
2018-09-06T15:36:56.441Z,28.85
2018-09-06T15:39:25.169Z,32.93
2018-09-06T15:41:53.901Z,33.13
2018-09-06T15:44:22.537Z,31.37
2018-09-06T15:46:51.460Z,27.70
2018-09-06T15:49:20.169Z,30.05
2018-09-06T15:51:48.705Z,30.68
2018-09-06T15:54:17.253Z,30.37
2018-09-06T15:56:46.484Z,36.05
2018-09-06T15:59:15.326Z,39.03
2018-09-06T16:01:44.771Z,30.60
2018-09-06T16:04:13.265Z,33.10
2018-09-06T16:06:41.781Z,34.58
2018-09-06T16:09:10.747Z,34.92
2018-09-06T16:11:39.498Z,33.30
2018-09-06T16:14:14.657Z,35.13
2018-09-06T16:16:43.543Z,32.60
2018-09-06T16:19:12.054Z,30.40
2018-09-06T16:41:51.997Z,28.32
2018-09-06T16:44:20.464Z,26.42
2018-09-06T16:46:49.016Z,26.10
2018-09-06T16:49:17.700Z,25.62
2018-09-06T16:51:46.201Z,24.47
2018-09-06T16:54:15.169Z,20.27
2018-09-06T16:56:43.845Z,15.77
2018-09-06T16:59:12.576Z,13.32
2018-09-06T17:01:41.513Z,12.35
2018-09-06T17:04:10.015Z,17.07
2018-09-06T17:06:38.618Z,10.78
2018-09-06T17:09:08.868Z,11.48
2018-09-06T17:11:37.630Z,9.70
2018-09-06T17:14:12.895Z,9.30
2018-09-06T17:16:41.507Z,9.85
2018-09-06T17:19:10.345Z,8.78
2018-09-06T17:21:39.201Z,9.33
2018-09-06T17:24:07.879Z,8.83
2018-09-06T17:26:36.524Z,9.00
2018-09-06T17:29:05.060Z,10.08
2018-09-06T17:31:33.589Z,9.18
2018-09-06T17:34:02.047Z,8.85
2018-09-06T17:36:30.662Z,8.83
2018-09-06T17:38:59.549Z,8.95
2018-09-06T17:41:28.000Z,10.05
2018-09-06T17:43:56.854Z,9.43
2018-09-06T17:46:25.573Z,13.43
2018-09-06T17:48:54.054Z,9.75
2018-09-06T17:51:22.743Z,9.43
2018-09-06T17:53:56.450Z,9.60
2018-09-06T17:56:27.853Z,9.10
2018-09-06T17:58:56.654Z,9.70
2018-09-06T18:01:32.637Z,9.38
2018-09-06T18:04:01.474Z,8.98
2018-09-06T18:06:30.168Z,9.48
2018-09-06T18:08:58.772Z,9.08
2018-09-06T18:11:27.858Z,8.93
2018-09-06T18:13:56.872Z,9.93
2018-09-06T18:16:25.339Z,6.95
2018-09-06T18:18:54.749Z,20.25
2018-09-06T18:21:24.290Z,15.25
2018-09-06T18:23:53.557Z,12.18
2018-09-06T18:26:22.645Z,7.00
2018-09-06T18:28:51.411Z,6.72
2018-09-06T18:31:20.410Z,8.05
2018-09-06T18:33:49.120Z,26.85
2018-09-06T18:36:18.459Z,22.07
2018-09-06T18:38:47.845Z,7.30
2018-09-06T18:41:18.081Z,20.35
2018-09-06T18:43:46.988Z,6.92
2018-09-06T18:46:16.033Z,8.88
2018-09-06T18:48:45.731Z,10.43
2018-09-06T18:51:14.747Z,52.95
2018-09-06T18:53:43.941Z,8.58
2018-09-06T18:56:12.575Z,5.97
2018-09-06T18:58:41.372Z,6.20
2018-09-06T19:01:09.954Z,6.12
2018-09-06T19:03:39.158Z,5.45
2018-09-06T19:06:08.137Z,6.17
2018-09-06T19:08:37.076Z,6.12
2018-09-06T19:11:07.927Z,5.97
2018-09-06T19:13:36.566Z,6.75
2018-09-06T19:16:05.168Z,6.65
2018-09-06T19:18:34.080Z,6.15
2018-09-06T19:21:02.650Z,6.92
2018-09-06T19:23:31.167Z,7.42
2018-09-06T19:25:59.857Z,7.25
2018-09-06T19:28:28.619Z,6.35
2018-09-06T19:30:57.194Z,7.72
2018-09-06T19:33:25.799Z,6.33
2018-09-06T19:35:54.735Z,7.10
2018-09-06T19:38:23.264Z,6.53
2018-09-06T19:40:51.988Z,7.28
2018-09-06T19:43:20.514Z,6.40
2018-09-06T19:45:49.115Z,6.78
2018-09-06T19:48:17.828Z,6.83
2018-09-06T19:50:46.628Z,6.65
2018-09-06T19:53:15.311Z,6.53
2018-09-06T19:55:44.671Z,5.62
2018-09-06T19:58:13.289Z,6.20
2018-09-06T20:00:42.481Z,6.17
2018-09-06T20:03:11.333Z,6.92
2018-09-06T20:05:40.420Z,5.97
2018-09-06T20:08:09.460Z,7.33
2018-09-06T20:10:38.356Z,7.75
2018-09-06T20:13:07.251Z,7.05
2018-09-06T20:15:36.080Z,6.78
2018-09-06T20:18:05.664Z,9.25
2018-09-06T20:20:34.375Z,9.25
2018-09-06T20:23:03.449Z,8.40
2018-09-06T20:25:32.284Z,9.08
2018-09-06T20:28:01.617Z,9.53
2018-09-06T20:30:30.278Z,7.70
2018-09-06T20:32:58.783Z,7.95
2018-09-06T20:35:27.376Z,8.93
2018-09-06T20:37:56.060Z,8.40
2018-09-06T20:40:24.904Z,8.40
2018-09-06T20:42:53.557Z,8.85
2018-09-06T20:45:22.233Z,9.00
2018-09-06T20:47:51.105Z,8.85
2018-09-06T20:50:19.768Z,9.33
2018-09-06T20:52:48.601Z,8.45
2018-09-06T20:55:17.990Z,8.93
2018-09-06T20:57:46.552Z,8.75
2018-09-06T21:00:15.334Z,7.90
2018-09-06T21:02:43.923Z,9.03
2018-09-06T21:05:12.694Z,8.40
2018-09-06T21:07:41.321Z,9.68
2018-09-06T21:10:10.025Z,8.55
2018-09-06T21:12:38.562Z,8.73
2018-09-06T21:15:07.143Z,9.73
2018-09-06T21:17:35.660Z,8.50
2018-09-06T21:20:04.482Z,9.80
2018-09-06T21:22:33.148Z,9.18
2018-09-06T21:25:02.043Z,8.58
2018-09-06T21:27:30.839Z,8.95
2018-09-06T21:29:59.404Z,9.48
2018-09-06T21:32:27.895Z,8.90
2018-09-06T21:34:56.409Z,8.58
2018-09-06T21:37:24.865Z,9.20
2018-09-06T21:39:53.642Z,9.33
2018-09-06T21:42:22.287Z,10.20
2018-09-06T21:44:50.838Z,12.47
2018-09-06T21:47:19.434Z,10.30
2018-09-06T21:49:47.903Z,11.08
2018-09-06T21:52:16.967Z,11.08
2018-09-06T21:54:45.657Z,12.30
2018-09-06T21:57:14.303Z,11.18
2018-09-06T21:59:42.926Z,12.07
2018-09-06T22:02:16.672Z,13.00
2018-09-06T22:04:45.245Z,12.33
2018-09-06T22:07:14.366Z,11.30
2018-09-06T22:09:45.736Z,12.47
2018-09-06T22:12:16.722Z,12.28
2018-09-06T22:14:46.755Z,11.25
2018-09-06T22:17:15.398Z,11.08
2018-09-06T22:19:43.939Z,11.65
2018-09-06T22:22:12.590Z,10.32
2018-09-06T22:24:41.801Z,11.03
2018-09-06T22:27:10.464Z,10.25
2018-09-06T22:29:39.201Z,9.88
2018-09-06T22:32:07.882Z,10.20
2018-09-06T22:34:37.354Z,9.88
2018-09-06T22:37:06.147Z,9.65
2018-09-06T22:39:34.797Z,10.15
2018-09-06T22:42:03.498Z,10.78
2018-09-06T22:44:32.853Z,10.05
2018-09-06T22:47:01.333Z,10.45
2018-09-06T22:49:30.031Z,11.93
2018-09-06T22:51:58.532Z,10.48
2018-09-06T22:54:27.055Z,10.78
2018-09-06T22:56:55.829Z,10.28
2018-09-06T22:59:25.249Z,10.75
2018-09-06T23:01:53.953Z,10.95
2018-09-06T23:04:22.538Z,11.03
2018-09-06T23:06:51.249Z,11.00
2018-09-06T23:09:19.849Z,10.28
2018-09-06T23:11:49.018Z,13.20
2018-09-06T23:14:17.565Z,10.53
2018-09-06T23:16:46.022Z,13.20
2018-09-06T23:19:14.640Z,10.98
2018-09-06T23:21:43.216Z,11.70
2018-09-06T23:24:11.815Z,11.03
2018-09-06T23:26:40.972Z,12.80
2018-09-06T23:29:10.217Z,12.07
2018-09-06T23:31:39.683Z,12.98
2018-09-06T23:34:08.375Z,13.08
2018-09-06T23:36:36.884Z,12.23
2018-09-06T23:39:07.436Z,11.68
2018-09-06T23:41:36.071Z,11.80
2018-09-06T23:44:04.845Z,12.88
2018-09-06T23:46:33.325Z,12.18
2018-09-06T23:49:02.051Z,13.48
2018-09-06T23:51:30.555Z,12.50
2018-09-06T23:53:59.777Z,14.33
2018-09-06T23:56:29.090Z,13.08
2018-09-06T23:58:57.621Z,13.35
